Desk Aeronautico è consultabile gratuitamente, la pubblicità è l'unico modo per mantenere il sito online. Cercheremo di renderla il meno invasiva possibile, disattiva AdBlock!

Airport easy briefing

LIBP: Pescara

LIBP 260950Z AUTO 07006KT 9999 NCD 25/17 Q1021
TAF LIBP 260500Z 2606/2706 VRB04KT CAVOK BECMG 2608/2610 06010KT BECMG 2608/2610 VRB04KT

NOTAM B4864/21
Località: LIBP - Pescara
In vigore da/a (UTC): 05/08/21 13:41 - 05/09/21 08:00 (stimato)
FOLLOW ATC INSTRUCTIONS IS MANDATORY
FOR TAXIING ON TAXIWAY M DUE TO LACK OF LIGHT AND VERTICAL SIGN.
REF AIP AD 2 LIBP 1-8
NOTAM B2266/21
Località: LIBP - Pescara
In vigore da/a (UTC): 20/04/21 15:47 - 08/07/21 12:00 (stimato)
CARGO LOADER NOT AVAILABLE.
REF AIP AD 2 LIBP 1-1
NOTAM B2247/21
Località: LIBP - Pescara
In vigore da (UTC): Permanente dal 19/04/21 13:44
REF AIP AD2 LIBP 1-6 TABLE 19 'RADIO NAVIGATION AND LANDING AIDS'
COLUMN 7 'DESIGNATED OPERATIONAL COVERAGE LIMITATIONS'
LOCALIZER (ILS) RUNWAY 22 'IPS' FREQ 110.70 MHZ CHANGE TO READ:
LIMITATIONS:
AT 17NM MRA 3000FT
AT 25NM MRA 3000FT
NOTAM B2233/21
Località: LIBP - Pescara
In vigore da/a (UTC): 19/04/21 10:14 - 19/06/21 12:00 (stimato)
THE FLIGHT STATUS 'AIRCRAFT READY' OR 'AIRCRAFT BLOCKED'
FOR AIRCRAFT DEPARTING FROM STANDS 20-32 AND 40-43 IS DETERMINATED
AS FOLLOWS:
- 'AIRCRAFT READY' UPON REQUEST BY THE PILOT TO START ENGINE
- 'AIRCRAFT BLOCKED' AT THE ENTRANCE OF THE ARRIVING AIRCRAFT AT THE
ASSIGNED STAND
REF AIP AD 2 LIBP 1-7 AND 2-5